sensor_id;sensor_type;location;lat;lon;timestamp;P1;durP1;ratioP1;P2;durP2;ratioP2
2956;SDS011;1488;51.548;7.222;2022-08-27T00:00:41;0.80;;;0.80;;
2956;SDS011;1488;51.548;7.222;2022-08-27T00:03:10;0.90;;;0.80;;
2956;SDS011;1488;51.548;7.222;2022-08-27T00:05:37;0.97;;;0.87;;
2956;SDS011;1488;51.548;7.222;2022-08-27T00:08:06;0.93;;;0.83;;
2956;SDS011;1488;51.548;7.222;2022-08-27T00:10:34;0.90;;;0.90;;
2956;SDS011;1488;51.548;7.222;2022-08-27T00:13:02;1.10;;;1.00;;
2956;SDS011;1488;51.548;7.222;2022-08-27T00:15:30;0.93;;;0.83;;
2956;SDS011;1488;51.548;7.222;2022-08-27T00:17:57;1.20;;;0.90;;
2956;SDS011;1488;51.548;7.222;2022-08-27T00:20:25;1.00;;;0.90;;
2956;SDS011;1488;51.548;7.222;2022-08-27T00:22:53;1.20;;;1.10;;
2956;SDS011;1488;51.548;7.222;2022-08-27T00:25:20;1.00;;;1.00;;
2956;SDS011;1488;51.548;7.222;2022-08-27T00:27:47;1.47;;;1.27;;
2956;SDS011;1488;51.548;7.222;2022-08-27T00:30:15;0.90;;;0.83;;
2956;SDS011;1488;51.548;7.222;2022-08-27T00:32:44;0.87;;;0.80;;
2956;SDS011;1488;51.548;7.222;2022-08-27T00:35:11;1.00;;;0.90;;
2956;SDS011;1488;51.548;7.222;2022-08-27T00:37:41;1.07;;;0.80;;
2956;SDS011;1488;51.548;7.222;2022-08-27T00:40:11;1.30;;;0.90;;
2956;SDS011;1488;51.548;7.222;2022-08-27T00:42:46;0.97;;;0.87;;
2956;SDS011;1488;51.548;7.222;2022-08-27T00:45:15;1.10;;;0.90;;
2956;SDS011;1488;51.548;7.222;2022-08-27T00:47:44;1.10;;;1.00;;
2956;SDS011;1488;51.548;7.222;2022-08-27T00:50:14;1.00;;;0.90;;
2956;SDS011;1488;51.548;7.222;2022-08-27T00:52:45;1.30;;;1.20;;
2956;SDS011;1488;51.548;7.222;2022-08-27T00:55:17;0.80;;;0.80;;
2956;SDS011;1488;51.548;7.222;2022-08-27T00:57:49;1.00;;;0.90;;
2956;SDS011;1488;51.548;7.222;2022-08-27T01:00:21;1.10;;;0.90;;
2956;SDS011;1488;51.548;7.222;2022-08-27T01:02:48;0.97;;;0.87;;
2956;SDS011;1488;51.548;7.222;2022-08-27T01:05:16;1.10;;;1.00;;
2956;SDS011;1488;51.548;7.222;2022-08-27T01:07:48;0.90;;;0.80;;
2956;SDS011;1488;51.548;7.222;2022-08-27T01:10:18;0.80;;;0.80;;
2956;SDS011;1488;51.548;7.222;2022-08-27T01:12:47;0.93;;;0.83;;
2956;SDS011;1488;51.548;7.222;2022-08-27T01:15:16;1.30;;;1.00;;
2956;SDS011;1488;51.548;7.222;2022-08-27T01:17:44;1.00;;;0.90;;
2956;SDS011;1488;51.548;7.222;2022-08-27T01:20:14;1.10;;;1.00;;
2956;SDS011;1488;51.548;7.222;2022-08-27T01:22:45;1.20;;;1.10;;
2956;SDS011;1488;51.548;7.222;2022-08-27T01:25:22;1.37;;;0.90;;
2956;SDS011;1488;51.548;7.222;2022-08-27T01:27:50;1.20;;;1.00;;
2956;SDS011;1488;51.548;7.222;2022-08-27T01:30:21;3.63;;;1.00;;
2956;SDS011;1488;51.548;7.222;2022-08-27T01:32:48;0.80;;;0.80;;
2956;SDS011;1488;51.548;7.222;2022-08-27T01:35:16;1.03;;;0.93;;
2956;SDS011;1488;51.548;7.222;2022-08-27T01:37:44;1.10;;;1.00;;
2956;SDS011;1488;51.548;7.222;2022-08-27T01:40:14;1.20;;;0.80;;
2956;SDS011;1488;51.548;7.222;2022-08-27T01:42:45;0.80;;;0.80;;
2956;SDS011;1488;51.548;7.222;2022-08-27T01:45:15;0.80;;;0.80;;
2956;SDS011;1488;51.548;7.222;2022-08-27T01:47:44;1.20;;;1.10;;
2956;SDS011;1488;51.548;7.222;2022-08-27T01:50:13;1.10;;;1.00;;
2956;SDS011;1488;51.548;7.222;2022-08-27T01:52:42;1.20;;;1.10;;
2956;SDS011;1488;51.548;7.222;2022-08-27T01:55:10;1.00;;;0.90;;
2956;SDS011;1488;51.548;7.222;2022-08-27T01:57:40;0.80;;;0.80;;
2956;SDS011;1488;51.548;7.222;2022-08-27T02:00:10;1.47;;;0.80;;
2956;SDS011;1488;51.548;7.222;2022-08-27T02:02:39;0.87;;;0.87;;
2956;SDS011;1488;51.548;7.222;2022-08-27T02:05:08;1.43;;;0.80;;
2956;SDS011;1488;51.548;7.222;2022-08-27T02:07:36;1.10;;;1.00;;
2956;SDS011;1488;51.548;7.222;2022-08-27T02:10:03;1.20;;;1.00;;
2956;SDS011;1488;51.548;7.222;2022-08-27T02:12:30;0.93;;;0.87;;
2956;SDS011;1488;51.548;7.222;2022-08-27T02:14:57;1.73;;;0.90;;
2956;SDS011;1488;51.548;7.222;2022-08-27T02:17:25;0.80;;;0.80;;
2956;SDS011;1488;51.548;7.222;2022-08-27T02:19:55;0.80;;;0.80;;
2956;SDS011;1488;51.548;7.222;2022-08-27T02:22:22;1.17;;;0.90;;
2956;SDS011;1488;51.548;7.222;2022-08-27T02:24:50;0.97;;;0.90;;
2956;SDS011;1488;51.548;7.222;2022-08-27T02:27:18;1.07;;;0.97;;
2956;SDS011;1488;51.548;7.222;2022-08-27T02:29:45;1.20;;;0.90;;
2956;SDS011;1488;51.548;7.222;2022-08-27T02:32:12;1.00;;;0.90;;
2956;SDS011;1488;51.548;7.222;2022-08-27T02:34:41;1.37;;;0.93;;
2956;SDS011;1488;51.548;7.222;2022-08-27T02:37:08;0.80;;;0.80;;
2956;SDS011;1488;51.548;7.222;2022-08-27T02:39:35;1.73;;;1.40;;
2956;SDS011;1488;51.548;7.222;2022-08-27T02:42:02;1.10;;;0.80;;
2956;SDS011;1488;51.548;7.222;2022-08-27T02:44:29;0.80;;;0.80;;
2956;SDS011;1488;51.548;7.222;2022-08-27T02:46:59;2.07;;;0.97;;
2956;SDS011;1488;51.548;7.222;2022-08-27T02:49:26;1.20;;;1.10;;
2956;SDS011;1488;51.548;7.222;2022-08-27T02:51:55;1.20;;;1.00;;
2956;SDS011;1488;51.548;7.222;2022-08-27T02:54:23;1.07;;;0.97;;
2956;SDS011;1488;51.548;7.222;2022-08-27T02:56:52;1.10;;;0.90;;
2956;SDS011;1488;51.548;7.222;2022-08-27T02:59:19;1.23;;;1.10;;
2956;SDS011;1488;51.548;7.222;2022-08-27T03:01:47;1.30;;;1.00;;
2956;SDS011;1488;51.548;7.222;2022-08-27T03:04:14;1.10;;;0.90;;
2956;SDS011;1488;51.548;7.222;2022-08-27T03:06:42;0.90;;;0.77;;
2956;SDS011;1488;51.548;7.222;2022-08-27T03:09:11;1.43;;;0.90;;
2956;SDS011;1488;51.548;7.222;2022-08-27T03:11:38;0.90;;;0.80;;
2956;SDS011;1488;51.548;7.222;2022-08-27T03:14:05;0.80;;;0.80;;
2956;SDS011;1488;51.548;7.222;2022-08-27T03:16:32;1.00;;;0.80;;
2956;SDS011;1488;51.548;7.222;2022-08-27T03:19:00;1.00;;;0.90;;
2956;SDS011;1488;51.548;7.222;2022-08-27T03:21:26;1.73;;;0.93;;
2956;SDS011;1488;51.548;7.222;2022-08-27T03:23:53;0.90;;;0.80;;
2956;SDS011;1488;51.548;7.222;2022-08-27T03:26:21;1.17;;;0.83;;
2956;SDS011;1488;51.548;7.222;2022-08-27T03:28:48;0.80;;;0.70;;
2956;SDS011;1488;51.548;7.222;2022-08-27T03:31:16;1.00;;;0.73;;
2956;SDS011;1488;51.548;7.222;2022-08-27T03:33:50;1.07;;;0.97;;
2956;SDS011;1488;51.548;7.222;2022-08-27T03:36:19;0.80;;;0.80;;
2956;SDS011;1488;51.548;7.222;2022-08-27T03:38:46;1.20;;;0.90;;
2956;SDS011;1488;51.548;7.222;2022-08-27T03:41:13;1.00;;;0.90;;
2956;SDS011;1488;51.548;7.222;2022-08-27T03:43:41;1.67;;;0.80;;
2956;SDS011;1488;51.548;7.222;2022-08-27T03:46:08;2.10;;;1.20;;
2956;SDS011;1488;51.548;7.222;2022-08-27T03:48:36;1.17;;;0.80;;
2956;SDS011;1488;51.548;7.222;2022-08-27T03:51:03;1.07;;;0.97;;
2956;SDS011;1488;51.548;7.222;2022-08-27T03:53:32;0.93;;;0.83;;
2956;SDS011;1488;51.548;7.222;2022-08-27T03:55:59;0.90;;;0.80;;
2956;SDS011;1488;51.548;7.222;2022-08-27T03:58:26;1.30;;;0.93;;
2956;SDS011;1488;51.548;7.222;2022-08-27T04:00:54;0.90;;;0.70;;
2956;SDS011;1488;51.548;7.222;2022-08-27T04:03:21;1.00;;;0.90;;
2956;SDS011;1488;51.548;7.222;2022-08-27T04:05:50;1.20;;;0.90;;
2956;SDS011;1488;51.548;7.222;2022-08-27T04:08:18;1.00;;;0.90;;
2956;SDS011;1488;51.548;7.222;2022-08-27T04:10:45;1.20;;;0.90;;
2956;SDS011;1488;51.548;7.222;2022-08-27T04:13:15;1.20;;;0.90;;
2956;SDS011;1488;51.548;7.222;2022-08-27T04:15:42;1.70;;;1.00;;
2956;SDS011;1488;51.548;7.222;2022-08-27T04:18:11;1.20;;;1.10;;
2956;SDS011;1488;51.548;7.222;2022-08-27T04:20:40;0.80;;;0.80;;
2956;SDS011;1488;51.548;7.222;2022-08-27T04:23:07;1.10;;;0.90;;
2956;SDS011;1488;51.548;7.222;2022-08-27T04:25:37;1.00;;;0.80;;
2956;SDS011;1488;51.548;7.222;2022-08-27T04:28:04;1.27;;;0.80;;
2956;SDS011;1488;51.548;7.222;2022-08-27T04:30:31;1.00;;;0.83;;
2956;SDS011;1488;51.548;7.222;2022-08-27T04:32:59;1.00;;;0.80;;
2956;SDS011;1488;51.548;7.222;2022-08-27T04:35:27;1.00;;;0.90;;
2956;SDS011;1488;51.548;7.222;2022-08-27T04:37:54;0.93;;;0.83;;
2956;SDS011;1488;51.548;7.222;2022-08-27T04:40:21;1.20;;;1.00;;
2956;SDS011;1488;51.548;7.222;2022-08-27T04:43:08;1.17;;;1.00;;
2956;SDS011;1488;51.548;7.222;2022-08-27T04:45:40;1.37;;;0.90;;
2956;SDS011;1488;51.548;7.222;2022-08-27T04:48:08;1.00;;;0.70;;
2956;SDS011;1488;51.548;7.222;2022-08-27T04:50:39;1.37;;;0.90;;
2956;SDS011;1488;51.548;7.222;2022-08-27T04:53:10;1.30;;;0.87;;
2956;SDS011;1488;51.548;7.222;2022-08-27T04:55:41;2.00;;;1.00;;
2956;SDS011;1488;51.548;7.222;2022-08-27T04:58:08;1.00;;;0.90;;
2956;SDS011;1488;51.548;7.222;2022-08-27T05:00:39;1.30;;;0.90;;
2956;SDS011;1488;51.548;7.222;2022-08-27T05:03:06;1.53;;;1.07;;
2956;SDS011;1488;51.548;7.222;2022-08-27T05:05:33;1.70;;;1.10;;
2956;SDS011;1488;51.548;7.222;2022-08-27T05:08:02;1.40;;;1.20;;
2956;SDS011;1488;51.548;7.222;2022-08-27T05:10:30;1.20;;;1.10;;
2956;SDS011;1488;51.548;7.222;2022-08-27T05:13:03;1.00;;;0.90;;
2956;SDS011;1488;51.548;7.222;2022-08-27T05:15:30;1.57;;;0.90;;
2956;SDS011;1488;51.548;7.222;2022-08-27T05:17:57;2.23;;;0.93;;
2956;SDS011;1488;51.548;7.222;2022-08-27T05:20:24;1.40;;;1.00;;
2956;SDS011;1488;51.548;7.222;2022-08-27T05:22:51;1.43;;;1.00;;
2956;SDS011;1488;51.548;7.222;2022-08-27T05:25:20;1.20;;;1.00;;
2956;SDS011;1488;51.548;7.222;2022-08-27T05:27:47;1.00;;;0.90;;
2956;SDS011;1488;51.548;7.222;2022-08-27T05:30:14;1.30;;;0.80;;
2956;SDS011;1488;51.548;7.222;2022-08-27T05:32:41;0.90;;;0.80;;
2956;SDS011;1488;51.548;7.222;2022-08-27T05:35:08;0.93;;;0.80;;
2956;SDS011;1488;51.548;7.222;2022-08-27T05:37:35;1.37;;;1.10;;
2956;SDS011;1488;51.548;7.222;2022-08-27T05:40:04;1.17;;;0.90;;
2956;SDS011;1488;51.548;7.222;2022-08-27T05:42:33;1.17;;;1.00;;
2956;SDS011;1488;51.548;7.222;2022-08-27T05:44:59;1.00;;;0.90;;
2956;SDS011;1488;51.548;7.222;2022-08-27T05:47:26;1.23;;;1.13;;
2956;SDS011;1488;51.548;7.222;2022-08-27T05:49:53;1.60;;;1.07;;
2956;SDS011;1488;51.548;7.222;2022-08-27T05:52:20;1.17;;;1.07;;
2956;SDS011;1488;51.548;7.222;2022-08-27T05:54:47;1.20;;;1.00;;
2956;SDS011;1488;51.548;7.222;2022-08-27T05:57:14;1.70;;;1.00;;
2956;SDS011;1488;51.548;7.222;2022-08-27T05:59:42;1.00;;;0.80;;
2956;SDS011;1488;51.548;7.222;2022-08-27T06:02:26;1.83;;;0.90;;
2956;SDS011;1488;51.548;7.222;2022-08-27T06:04:53;2.07;;;0.80;;
2956;SDS011;1488;51.548;7.222;2022-08-27T06:07:20;2.03;;;0.90;;
2956;SDS011;1488;51.548;7.222;2022-08-27T06:09:47;2.93;;;1.13;;
2956;SDS011;1488;51.548;7.222;2022-08-27T06:12:14;1.73;;;0.90;;
2956;SDS011;1488;51.548;7.222;2022-08-27T06:14:42;0.90;;;0.70;;
2956;SDS011;1488;51.548;7.222;2022-08-27T06:17:09;1.10;;;1.00;;
2956;SDS011;1488;51.548;7.222;2022-08-27T06:19:36;1.73;;;1.00;;
2956;SDS011;1488;51.548;7.222;2022-08-27T06:22:03;1.43;;;0.90;;
2956;SDS011;1488;51.548;7.222;2022-08-27T06:24:31;1.00;;;0.90;;
2956;SDS011;1488;51.548;7.222;2022-08-27T06:26:58;1.03;;;0.93;;
2956;SDS011;1488;51.548;7.222;2022-08-27T06:29:25;1.20;;;1.03;;
2956;SDS011;1488;51.548;7.222;2022-08-27T06:31:53;1.07;;;0.97;;
2956;SDS011;1488;51.548;7.222;2022-08-27T06:34:20;1.20;;;1.00;;
2956;SDS011;1488;51.548;7.222;2022-08-27T06:36:47;1.97;;;1.20;;
2956;SDS011;1488;51.548;7.222;2022-08-27T06:39:14;1.60;;;1.33;;
2956;SDS011;1488;51.548;7.222;2022-08-27T06:41:41;2.57;;;1.03;;
2956;SDS011;1488;51.548;7.222;2022-08-27T06:44:08;3.33;;;1.30;;
2956;SDS011;1488;51.548;7.222;2022-08-27T06:46:36;1.93;;;1.63;;
2956;SDS011;1488;51.548;7.222;2022-08-27T09:08:44;1.83;;;1.60;;
2956;SDS011;1488;51.548;7.222;2022-08-27T09:11:17;4.07;;;1.17;;
2956;SDS011;1488;51.548;7.222;2022-08-27T09:13:53;3.27;;;1.33;;
2956;SDS011;1488;51.548;7.222;2022-08-27T09:16:23;2.70;;;1.13;;
2956;SDS011;1488;51.548;7.222;2022-08-27T09:18:50;2.77;;;1.50;;
2956;SDS011;1488;51.548;7.222;2022-08-27T09:21:21;2.63;;;1.80;;
2956;SDS011;1488;51.548;7.222;2022-08-27T09:24:01;5.60;;;2.17;;
2956;SDS011;1488;51.548;7.222;2022-08-27T09:26:33;4.10;;;1.87;;
2956;SDS011;1488;51.548;7.222;2022-08-27T09:29:03;3.20;;;1.37;;
2956;SDS011;1488;51.548;7.222;2022-08-27T09:31:41;8.23;;;2.20;;
2956;SDS011;1488;51.548;7.222;2022-08-27T09:34:09;4.50;;;1.50;;
2956;SDS011;1488;51.548;7.222;2022-08-27T09:36:45;5.30;;;1.80;;
2956;SDS011;1488;51.548;7.222;2022-08-27T09:39:31;2.57;;;1.60;;
2956;SDS011;1488;51.548;7.222;2022-08-27T09:42:00;1.90;;;1.30;;
2956;SDS011;1488;51.548;7.222;2022-08-27T09:44:29;5.00;;;1.70;;
2956;SDS011;1488;51.548;7.222;2022-08-27T09:46:58;3.20;;;1.43;;
2956;SDS011;1488;51.548;7.222;2022-08-27T09:49:27;4.93;;;1.60;;
2956;SDS011;1488;51.548;7.222;2022-08-27T09:51:58;3.57;;;2.00;;
2956;SDS011;1488;51.548;7.222;2022-08-27T09:54:28;4.20;;;1.40;;
2956;SDS011;1488;51.548;7.222;2022-08-27T09:57:03;3.43;;;1.50;;
2956;SDS011;1488;51.548;7.222;2022-08-27T09:59:32;1.23;;;1.13;;
2956;SDS011;1488;51.548;7.222;2022-08-27T10:02:02;3.50;;;1.43;;
2956;SDS011;1488;51.548;7.222;2022-08-27T10:04:34;1.20;;;1.10;;
2956;SDS011;1488;51.548;7.222;2022-08-27T10:07:10;1.90;;;1.70;;
2956;SDS011;1488;51.548;7.222;2022-08-27T10:09:46;2.53;;;1.60;;
2956;SDS011;1488;51.548;7.222;2022-08-27T10:12:18;4.17;;;1.83;;
2956;SDS011;1488;51.548;7.222;2022-08-27T10:14:53;1.20;;;1.10;;
2956;SDS011;1488;51.548;7.222;2022-08-27T10:17:25;2.17;;;1.17;;
2956;SDS011;1488;51.548;7.222;2022-08-27T10:20:05;1.53;;;1.30;;
2956;SDS011;1488;51.548;7.222;2022-08-27T10:22:41;2.17;;;1.53;;
2956;SDS011;1488;51.548;7.222;2022-08-27T10:25:21;1.23;;;1.13;;
2956;SDS011;1488;51.548;7.222;2022-08-27T10:27:57;1.53;;;1.30;;
2956;SDS011;1488;51.548;7.222;2022-08-27T10:30:38;1.70;;;1.10;;
2956;SDS011;1488;51.548;7.222;2022-08-27T10:33:16;3.00;;;1.90;;
2956;SDS011;1488;51.548;7.222;2022-08-27T10:35:51;1.57;;;1.47;;
2956;SDS011;1488;51.548;7.222;2022-08-27T10:38:29;1.30;;;1.20;;
2956;SDS011;1488;51.548;7.222;2022-08-27T10:41:05;2.90;;;1.40;;
2956;SDS011;1488;51.548;7.222;2022-08-27T10:46:36;1.57;;;1.40;;
2956;SDS011;1488;51.548;7.222;2022-08-27T10:49:13;2.20;;;1.10;;
2956;SDS011;1488;51.548;7.222;2022-08-27T10:51:48;1.10;;;1.00;;
2956;SDS011;1488;51.548;7.222;2022-08-27T10:54:24;1.70;;;1.03;;
2956;SDS011;1488;51.548;7.222;2022-08-27T10:56:59;1.20;;;1.10;;
2956;SDS011;1488;51.548;7.222;2022-08-27T10:59:32;1.40;;;1.30;;
2956;SDS011;1488;51.548;7.222;2022-08-27T11:02:09;3.77;;;1.27;;
2956;SDS011;1488;51.548;7.222;2022-08-27T11:04:45;1.10;;;1.00;;
2956;SDS011;1488;51.548;7.222;2022-08-27T11:07:17;1.27;;;1.00;;
2956;SDS011;1488;51.548;7.222;2022-08-27T11:09:51;2.00;;;1.00;;
2956;SDS011;1488;51.548;7.222;2022-08-27T11:12:24;1.77;;;1.20;;
2956;SDS011;1488;51.548;7.222;2022-08-27T11:14:55;1.93;;;1.20;;
2956;SDS011;1488;51.548;7.222;2022-08-27T11:17:28;1.70;;;1.20;;
2956;SDS011;1488;51.548;7.222;2022-08-27T11:20:00;1.37;;;1.10;;
2956;SDS011;1488;51.548;7.222;2022-08-27T11:22:34;1.13;;;1.00;;
2956;SDS011;1488;51.548;7.222;2022-08-27T11:25:08;2.97;;;1.17;;
2956;SDS011;1488;51.548;7.222;2022-08-27T11:27:45;1.93;;;1.50;;
2956;SDS011;1488;51.548;7.222;2022-08-27T11:30:17;1.60;;;1.00;;
2956;SDS011;1488;51.548;7.222;2022-08-27T11:32:49;1.50;;;1.00;;
2956;SDS011;1488;51.548;7.222;2022-08-27T11:35:24;1.40;;;1.20;;
2956;SDS011;1488;51.548;7.222;2022-08-27T11:40:59;3.03;;;1.27;;
2956;SDS011;1488;51.548;7.222;2022-08-27T11:44:01;1.67;;;1.00;;
2956;SDS011;1488;51.548;7.222;2022-08-27T11:46:37;1.80;;;1.20;;
2956;SDS011;1488;51.548;7.222;2022-08-27T11:49:07;1.77;;;1.00;;
2956;SDS011;1488;51.548;7.222;2022-08-27T11:51:35;1.33;;;1.23;;
2956;SDS011;1488;51.548;7.222;2022-08-27T11:54:05;2.63;;;1.27;;
2956;SDS011;1488;51.548;7.222;2022-08-27T11:56:38;1.87;;;1.10;;
2956;SDS011;1488;51.548;7.222;2022-08-27T11:59:17;1.80;;;1.23;;
2956;SDS011;1488;51.548;7.222;2022-08-27T12:01:47;1.63;;;1.10;;
2956;SDS011;1488;51.548;7.222;2022-08-27T12:04:21;1.37;;;1.10;;
2956;SDS011;1488;51.548;7.222;2022-08-27T12:07:00;3.10;;;1.40;;
2956;SDS011;1488;51.548;7.222;2022-08-27T12:09:41;2.80;;;1.47;;
2956;SDS011;1488;51.548;7.222;2022-08-27T12:12:19;1.63;;;1.10;;
2956;SDS011;1488;51.548;7.222;2022-08-27T12:14:52;1.10;;;1.00;;
2956;SDS011;1488;51.548;7.222;2022-08-27T12:17:28;1.90;;;1.10;;
2956;SDS011;1488;51.548;7.222;2022-08-27T12:20:06;1.20;;;1.10;;
2956;SDS011;1488;51.548;7.222;2022-08-27T12:22:42;1.30;;;1.20;;
2956;SDS011;1488;51.548;7.222;2022-08-27T12:25:33;1.57;;;1.10;;
2956;SDS011;1488;51.548;7.222;2022-08-27T12:28:00;1.40;;;1.10;;
2956;SDS011;1488;51.548;7.222;2022-08-27T12:30:32;1.90;;;1.10;;
2956;SDS011;1488;51.548;7.222;2022-08-27T12:33:04;2.73;;;1.20;;
2956;SDS011;1488;51.548;7.222;2022-08-27T12:35:40;1.47;;;1.00;;
2956;SDS011;1488;51.548;7.222;2022-08-27T12:38:11;2.07;;;1.50;;
2956;SDS011;1488;51.548;7.222;2022-08-27T12:40:44;1.33;;;1.20;;
2956;SDS011;1488;51.548;7.222;2022-08-27T12:43:16;2.13;;;1.37;;
2956;SDS011;1488;51.548;7.222;2022-08-27T12:45:46;3.00;;;1.50;;
2956;SDS011;1488;51.548;7.222;2022-08-27T12:48:17;1.30;;;1.07;;
2956;SDS011;1488;51.548;7.222;2022-08-27T12:50:49;1.80;;;1.50;;
2956;SDS011;1488;51.548;7.222;2022-08-27T12:53:24;1.10;;;1.00;;
2956;SDS011;1488;51.548;7.222;2022-08-27T12:56:04;1.93;;;1.13;;
2956;SDS011;1488;51.548;7.222;2022-08-27T12:58:51;2.60;;;1.33;;
2956;SDS011;1488;51.548;7.222;2022-08-27T13:01:35;1.67;;;1.20;;
2956;SDS011;1488;51.548;7.222;2022-08-27T13:04:16;1.30;;;1.20;;
2956;SDS011;1488;51.548;7.222;2022-08-27T13:06:46;1.27;;;1.17;;
2956;SDS011;1488;51.548;7.222;2022-08-27T13:09:14;2.50;;;1.30;;
2956;SDS011;1488;51.548;7.222;2022-08-27T13:11:44;2.50;;;1.20;;
2956;SDS011;1488;51.548;7.222;2022-08-27T13:14:14;2.50;;;1.73;;
2956;SDS011;1488;51.548;7.222;2022-08-27T13:16:45;1.60;;;1.10;;
2956;SDS011;1488;51.548;7.222;2022-08-27T13:19:18;1.40;;;1.13;;
2956;SDS011;1488;51.548;7.222;2022-08-27T13:21:49;1.20;;;1.10;;
2956;SDS011;1488;51.548;7.222;2022-08-27T13:24:18;2.03;;;1.00;;
2956;SDS011;1488;51.548;7.222;2022-08-27T13:26:47;1.10;;;1.00;;
2956;SDS011;1488;51.548;7.222;2022-08-27T13:29:17;1.67;;;1.37;;
2956;SDS011;1488;51.548;7.222;2022-08-27T13:31:46;1.67;;;1.10;;
2956;SDS011;1488;51.548;7.222;2022-08-27T13:34:16;1.97;;;1.10;;
2956;SDS011;1488;51.548;7.222;2022-08-27T13:36:50;1.50;;;1.10;;
2956;SDS011;1488;51.548;7.222;2022-08-27T13:39:22;1.30;;;1.20;;
2956;SDS011;1488;51.548;7.222;2022-08-27T13:41:50;1.40;;;1.00;;
2956;SDS011;1488;51.548;7.222;2022-08-27T13:44:17;2.10;;;1.23;;
2956;SDS011;1488;51.548;7.222;2022-08-27T13:46:49;1.30;;;1.10;;
2956;SDS011;1488;51.548;7.222;2022-08-27T13:49:19;1.43;;;1.13;;
2956;SDS011;1488;51.548;7.222;2022-08-27T13:51:48;2.70;;;1.13;;
2956;SDS011;1488;51.548;7.222;2022-08-27T13:54:22;1.27;;;1.00;;
2956;SDS011;1488;51.548;7.222;2022-08-27T13:56:55;1.77;;;1.17;;
2956;SDS011;1488;51.548;7.222;2022-08-27T13:59:28;2.67;;;1.30;;
2956;SDS011;1488;51.548;7.222;2022-08-27T14:01:58;3.03;;;1.20;;
2956;SDS011;1488;51.548;7.222;2022-08-27T14:04:32;1.23;;;1.07;;
2956;SDS011;1488;51.548;7.222;2022-08-27T14:07:06;0.93;;;0.87;;
2956;SDS011;1488;51.548;7.222;2022-08-27T14:09:39;1.20;;;1.10;;
2956;SDS011;1488;51.548;7.222;2022-08-27T14:12:09;1.57;;;0.93;;
2956;SDS011;1488;51.548;7.222;2022-08-27T14:14:42;6.83;;;1.80;;
2956;SDS011;1488;51.548;7.222;2022-08-27T14:17:22;1.40;;;1.27;;
2956;SDS011;1488;51.548;7.222;2022-08-27T14:19:52;2.50;;;1.20;;
2956;SDS011;1488;51.548;7.222;2022-08-27T14:22:24;1.53;;;1.10;;
2956;SDS011;1488;51.548;7.222;2022-08-27T14:24:51;1.70;;;1.40;;
2956;SDS011;1488;51.548;7.222;2022-08-27T14:27:18;2.80;;;1.33;;
2956;SDS011;1488;51.548;7.222;2022-08-27T14:29:45;1.60;;;1.50;;
2956;SDS011;1488;51.548;7.222;2022-08-27T14:32:12;1.20;;;1.10;;
2956;SDS011;1488;51.548;7.222;2022-08-27T14:34:43;2.60;;;1.20;;
2956;SDS011;1488;51.548;7.222;2022-08-27T14:37:12;1.77;;;1.23;;
2956;SDS011;1488;51.548;7.222;2022-08-27T14:43:01;2.07;;;1.50;;
2956;SDS011;1488;51.548;7.222;2022-08-27T14:45:28;4.40;;;1.20;;
2956;SDS011;1488;51.548;7.222;2022-08-27T14:47:55;2.13;;;1.33;;
2956;SDS011;1488;51.548;7.222;2022-08-27T14:50:24;2.33;;;1.40;;
2956;SDS011;1488;51.548;7.222;2022-08-27T14:52:51;2.47;;;1.43;;
2956;SDS011;1488;51.548;7.222;2022-08-27T14:55:18;2.50;;;1.83;;
2956;SDS011;1488;51.548;7.222;2022-08-27T14:57:45;2.63;;;1.57;;
2956;SDS011;1488;51.548;7.222;2022-08-27T15:00:12;2.07;;;1.00;;
2956;SDS011;1488;51.548;7.222;2022-08-27T15:02:42;1.87;;;1.60;;
2956;SDS011;1488;51.548;7.222;2022-08-27T15:05:12;1.17;;;1.07;;
2956;SDS011;1488;51.548;7.222;2022-08-27T15:07:40;4.87;;;1.30;;
2956;SDS011;1488;51.548;7.222;2022-08-27T15:10:07;1.57;;;1.30;;
2956;SDS011;1488;51.548;7.222;2022-08-27T15:12:35;4.03;;;1.60;;
2956;SDS011;1488;51.548;7.222;2022-08-27T15:15:04;5.60;;;1.93;;
2956;SDS011;1488;51.548;7.222;2022-08-27T15:17:33;5.17;;;1.27;;
2956;SDS011;1488;51.548;7.222;2022-08-27T15:20:00;2.97;;;1.47;;
2956;SDS011;1488;51.548;7.222;2022-08-27T15:22:28;3.00;;;1.13;;
2956;SDS011;1488;51.548;7.222;2022-08-27T15:25:00;1.17;;;1.07;;
2956;SDS011;1488;51.548;7.222;2022-08-27T15:27:31;2.30;;;1.30;;
2956;SDS011;1488;51.548;7.222;2022-08-27T15:29:59;2.80;;;1.37;;
2956;SDS011;1488;51.548;7.222;2022-08-27T15:32:27;1.70;;;1.27;;
2956;SDS011;1488;51.548;7.222;2022-08-27T15:34:55;2.37;;;1.20;;
2956;SDS011;1488;51.548;7.222;2022-08-27T15:37:24;1.27;;;1.10;;
2956;SDS011;1488;51.548;7.222;2022-08-27T15:39:52;1.73;;;1.40;;
